sensor_id;sensor_type;location;lat;lon;timestamp;P1;durP1;ratioP1;P2;durP2;ratioP2
61025;SDS011;46911;32.650;-16.902;2023-03-05T00:00:33;7.50;;;1.45;;
61025;SDS011;46911;32.650;-16.902;2023-03-05T00:02:39;11.80;;;2.30;;
61025;SDS011;46911;32.650;-16.902;2023-03-05T00:04:40;5.93;;;1.30;;
61025;SDS011;46911;32.650;-16.902;2023-03-05T00:06:41;14.95;;;2.28;;
61025;SDS011;46911;32.650;-16.902;2023-03-05T00:08:47;6.57;;;1.35;;
61025;SDS011;46911;32.650;-16.902;2023-03-05T00:10:55;10.32;;;1.48;;
61025;SDS011;46911;32.650;-16.902;2023-03-05T00:12:56;4.50;;;1.30;;
61025;SDS011;46911;32.650;-16.902;2023-03-05T00:14:57;17.63;;;1.88;;
61025;SDS011;46911;32.650;-16.902;2023-03-05T00:16:58;5.50;;;1.20;;
61025;SDS011;46911;32.650;-16.902;2023-03-05T00:18:59;6.25;;;1.42;;
61025;SDS011;46911;32.650;-16.902;2023-03-05T00:21:01;6.03;;;1.20;;
61025;SDS011;46911;32.650;-16.902;2023-03-05T00:23:02;8.93;;;1.60;;
61025;SDS011;46911;32.650;-16.902;2023-03-05T00:25:06;11.75;;;2.15;;
61025;SDS011;46911;32.650;-16.902;2023-03-05T00:27:07;5.43;;;1.42;;
61025;SDS011;46911;32.650;-16.902;2023-03-05T00:29:11;5.18;;;1.27;;
61025;SDS011;46911;32.650;-16.902;2023-03-05T00:31:22;3.80;;;1.33;;
61025;SDS011;46911;32.650;-16.902;2023-03-05T00:33:25;6.82;;;1.10;;
61025;SDS011;46911;32.650;-16.902;2023-03-05T00:35:29;4.82;;;0.98;;
61025;SDS011;46911;32.650;-16.902;2023-03-05T00:37:35;4.32;;;1.10;;
61025;SDS011;46911;32.650;-16.902;2023-03-05T00:39:40;5.82;;;0.90;;
61025;SDS011;46911;32.650;-16.902;2023-03-05T00:41:41;8.85;;;1.08;;
61025;SDS011;46911;32.650;-16.902;2023-03-05T00:43:42;4.78;;;1.05;;
61025;SDS011;46911;32.650;-16.902;2023-03-05T00:45:44;7.00;;;1.40;;
61025;SDS011;46911;32.650;-16.902;2023-03-05T00:47:46;5.32;;;0.68;;
61025;SDS011;46911;32.650;-16.902;2023-03-05T00:49:47;6.50;;;1.42;;
61025;SDS011;46911;32.650;-16.902;2023-03-05T00:51:48;7.40;;;1.02;;
61025;SDS011;46911;32.650;-16.902;2023-03-05T00:53:49;7.85;;;0.80;;
61025;SDS011;46911;32.650;-16.902;2023-03-05T00:55:52;8.85;;;1.00;;
61025;SDS011;46911;32.650;-16.902;2023-03-05T00:57:55;3.78;;;0.90;;
61025;SDS011;46911;32.650;-16.902;2023-03-05T00:59:57;5.18;;;0.88;;
61025;SDS011;46911;32.650;-16.902;2023-03-05T01:01:57;4.53;;;1.05;;
61025;SDS011;46911;32.650;-16.902;2023-03-05T01:04:02;2.55;;;0.80;;
61025;SDS011;46911;32.650;-16.902;2023-03-05T01:06:07;4.90;;;0.60;;
61025;SDS011;46911;32.650;-16.902;2023-03-05T01:08:10;9.23;;;0.90;;
61025;SDS011;46911;32.650;-16.902;2023-03-05T01:10:11;8.80;;;1.02;;
61025;SDS011;46911;32.650;-16.902;2023-03-05T01:12:12;4.13;;;1.50;;
61025;SDS011;46911;32.650;-16.902;2023-03-05T01:14:18;7.28;;;1.45;;
61025;SDS011;46911;32.650;-16.902;2023-03-05T01:16:20;4.85;;;0.90;;
61025;SDS011;46911;32.650;-16.902;2023-03-05T01:18:24;4.57;;;0.80;;
61025;SDS011;46911;32.650;-16.902;2023-03-05T01:20:25;8.88;;;0.90;;
61025;SDS011;46911;32.650;-16.902;2023-03-05T01:22:26;2.92;;;0.90;;
61025;SDS011;46911;32.650;-16.902;2023-03-05T01:24:29;2.72;;;0.68;;
61025;SDS011;46911;32.650;-16.902;2023-03-05T01:26:30;7.68;;;1.35;;
61025;SDS011;46911;32.650;-16.902;2023-03-05T01:28:31;9.18;;;1.35;;
61025;SDS011;46911;32.650;-16.902;2023-03-05T01:30:32;6.20;;;0.82;;
61025;SDS011;46911;32.650;-16.902;2023-03-05T01:32:38;11.25;;;1.10;;
61025;SDS011;46911;32.650;-16.902;2023-03-05T01:34:42;3.85;;;0.73;;
61025;SDS011;46911;32.650;-16.902;2023-03-05T01:36:43;6.72;;;0.85;;
61025;SDS011;46911;32.650;-16.902;2023-03-05T01:38:52;9.77;;;0.90;;
61025;SDS011;46911;32.650;-16.902;2023-03-05T01:40:53;3.78;;;0.80;;
61025;SDS011;46911;32.650;-16.902;2023-03-05T01:42:56;3.53;;;0.73;;
61025;SDS011;46911;32.650;-16.902;2023-03-05T01:45:11;3.28;;;1.35;;
61025;SDS011;46911;32.650;-16.902;2023-03-05T01:47:19;9.52;;;0.70;;
61025;SDS011;46911;32.650;-16.902;2023-03-05T01:51:24;10.52;;;0.82;;
61025;SDS011;46911;32.650;-16.902;2023-03-05T01:53:30;4.28;;;1.02;;
61025;SDS011;46911;32.650;-16.902;2023-03-05T01:55:31;2.25;;;0.70;;
61025;SDS011;46911;32.650;-16.902;2023-03-05T01:57:37;4.22;;;1.00;;
61025;SDS011;46911;32.650;-16.902;2023-03-05T01:59:47;3.78;;;0.98;;
61025;SDS011;46911;32.650;-16.902;2023-03-05T02:01:50;8.40;;;0.60;;
61025;SDS011;46911;32.650;-16.902;2023-03-05T02:03:54;7.30;;;0.85;;
61025;SDS011;46911;32.650;-16.902;2023-03-05T02:05:57;8.07;;;2.22;;
61025;SDS011;46911;32.650;-16.902;2023-03-05T02:07:59;2.05;;;0.63;;
61025;SDS011;46911;32.650;-16.902;2023-03-05T02:10:13;7.55;;;0.80;;
61025;SDS011;46911;32.650;-16.902;2023-03-05T02:12:25;8.68;;;0.77;;
61025;SDS011;46911;32.650;-16.902;2023-03-05T02:14:26;11.07;;;1.98;;
61025;SDS011;46911;32.650;-16.902;2023-03-05T02:16:27;3.15;;;0.82;;
61025;SDS011;46911;32.650;-16.902;2023-03-05T02:18:37;3.60;;;0.60;;
61025;SDS011;46911;32.650;-16.902;2023-03-05T02:21:21;9.45;;;0.63;;
61025;SDS011;46911;32.650;-16.902;2023-03-05T02:23:06;1.75;;;0.65;;
61025;SDS011;46911;32.650;-16.902;2023-03-05T02:25:18;11.02;;;0.73;;
61025;SDS011;46911;32.650;-16.902;2023-03-05T02:27:22;5.05;;;0.70;;
61025;SDS011;46911;32.650;-16.902;2023-03-05T02:29:34;3.30;;;0.77;;
61025;SDS011;46911;32.650;-16.902;2023-03-05T02:31:41;1.48;;;0.40;;
61025;SDS011;46911;32.650;-16.902;2023-03-05T02:33:42;7.80;;;0.85;;
61025;SDS011;46911;32.650;-16.902;2023-03-05T02:35:50;2.75;;;0.68;;
61025;SDS011;46911;32.650;-16.902;2023-03-05T02:37:53;15.15;;;1.00;;
61025;SDS011;46911;32.650;-16.902;2023-03-05T02:39:54;3.85;;;0.95;;
61025;SDS011;46911;32.650;-16.902;2023-03-05T02:41:59;0.68;;;0.32;;
61025;SDS011;46911;32.650;-16.902;2023-03-05T02:44:00;3.13;;;0.80;;
61025;SDS011;46911;32.650;-16.902;2023-03-05T02:46:06;6.75;;;0.80;;
61025;SDS011;46911;32.650;-16.902;2023-03-05T02:48:12;10.43;;;0.77;;
61025;SDS011;46911;32.650;-16.902;2023-03-05T02:50:18;4.10;;;0.88;;
61025;SDS011;46911;32.650;-16.902;2023-03-05T02:52:20;8.30;;;0.77;;
61025;SDS011;46911;32.650;-16.902;2023-03-05T02:54:22;4.90;;;0.77;;
61025;SDS011;46911;32.650;-16.902;2023-03-05T02:56:23;7.28;;;1.00;;
61025;SDS011;46911;32.650;-16.902;2023-03-05T02:58:24;2.35;;;0.75;;
61025;SDS011;46911;32.650;-16.902;2023-03-05T03:00:25;4.20;;;0.60;;
61025;SDS011;46911;32.650;-16.902;2023-03-05T03:02:29;1.95;;;0.50;;
61025;SDS011;46911;32.650;-16.902;2023-03-05T03:04:30;3.60;;;0.77;;
61025;SDS011;46911;32.650;-16.902;2023-03-05T03:06:31;3.92;;;0.68;;
61025;SDS011;46911;32.650;-16.902;2023-03-05T03:08:32;2.10;;;0.52;;
61025;SDS011;46911;32.650;-16.902;2023-03-05T03:10:35;5.15;;;0.98;;
61025;SDS011;46911;32.650;-16.902;2023-03-05T03:12:37;1.27;;;0.60;;
61025;SDS011;46911;32.650;-16.902;2023-03-05T03:14:41;0.98;;;0.50;;
61025;SDS011;46911;32.650;-16.902;2023-03-05T03:16:42;3.85;;;0.73;;
61025;SDS011;46911;32.650;-16.902;2023-03-05T03:18:45;1.25;;;0.40;;
61025;SDS011;46911;32.650;-16.902;2023-03-05T03:20:48;3.40;;;0.65;;
61025;SDS011;46911;32.650;-16.902;2023-03-05T03:22:51;4.22;;;0.60;;
61025;SDS011;46911;32.650;-16.902;2023-03-05T03:24:52;5.38;;;0.47;;
61025;SDS011;46911;32.650;-16.902;2023-03-05T03:26:57;1.75;;;0.70;;
61025;SDS011;46911;32.650;-16.902;2023-03-05T03:29:03;7.47;;;0.70;;
61025;SDS011;46911;32.650;-16.902;2023-03-05T03:31:06;3.83;;;0.40;;
61025;SDS011;46911;32.650;-16.902;2023-03-05T03:33:12;1.92;;;0.50;;
61025;SDS011;46911;32.650;-16.902;2023-03-05T03:35:15;2.15;;;0.45;;
61025;SDS011;46911;32.650;-16.902;2023-03-05T03:37:16;1.08;;;0.35;;
61025;SDS011;46911;32.650;-16.902;2023-03-05T03:39:20;4.20;;;0.50;;
61025;SDS011;46911;32.650;-16.902;2023-03-05T03:41:27;4.75;;;0.63;;
61025;SDS011;46911;32.650;-16.902;2023-03-05T03:43:28;1.15;;;0.30;;
61025;SDS011;46911;32.650;-16.902;2023-03-05T03:45:31;2.53;;;0.60;;
61025;SDS011;46911;32.650;-16.902;2023-03-05T03:47:34;8.00;;;0.80;;
61025;SDS011;46911;32.650;-16.902;2023-03-05T03:49:38;3.63;;;0.43;;
61025;SDS011;46911;32.650;-16.902;2023-03-05T03:51:41;0.50;;;0.30;;
61025;SDS011;46911;32.650;-16.902;2023-03-05T03:53:44;3.65;;;0.50;;
61025;SDS011;46911;32.650;-16.902;2023-03-05T03:55:45;0.65;;;0.38;;
61025;SDS011;46911;32.650;-16.902;2023-03-05T03:57:46;6.60;;;0.75;;
61025;SDS011;46911;32.650;-16.902;2023-03-05T03:59:47;3.95;;;0.55;;
61025;SDS011;46911;32.650;-16.902;2023-03-05T04:01:49;2.78;;;0.35;;
61025;SDS011;46911;32.650;-16.902;2023-03-05T04:03:53;1.67;;;0.40;;
61025;SDS011;46911;32.650;-16.902;2023-03-05T04:05:54;1.02;;;0.38;;
61025;SDS011;46911;32.650;-16.902;2023-03-05T04:07:57;1.88;;;0.32;;
61025;SDS011;46911;32.650;-16.902;2023-03-05T04:10:02;2.53;;;0.70;;
61025;SDS011;46911;32.650;-16.902;2023-03-05T04:12:05;2.97;;;0.43;;
61025;SDS011;46911;32.650;-16.902;2023-03-05T04:14:09;9.27;;;0.50;;
61025;SDS011;46911;32.650;-16.902;2023-03-05T04:16:10;2.15;;;0.60;;
61025;SDS011;46911;32.650;-16.902;2023-03-05T04:18:11;0.95;;;0.50;;
61025;SDS011;46911;32.650;-16.902;2023-03-05T04:20:12;5.78;;;0.75;;
61025;SDS011;46911;32.650;-16.902;2023-03-05T04:22:14;8.27;;;0.57;;
61025;SDS011;46911;32.650;-16.902;2023-03-05T04:24:16;3.65;;;0.45;;
61025;SDS011;46911;32.650;-16.902;2023-03-05T04:26:19;11.40;;;0.75;;
61025;SDS011;46911;32.650;-16.902;2023-03-05T04:28:25;1.05;;;0.30;;
61025;SDS011;46911;32.650;-16.902;2023-03-05T04:30:28;9.38;;;0.57;;
61025;SDS011;46911;32.650;-16.902;2023-03-05T04:32:30;3.50;;;0.65;;
61025;SDS011;46911;32.650;-16.902;2023-03-05T04:34:31;4.38;;;0.57;;
61025;SDS011;46911;32.650;-16.902;2023-03-05T04:36:35;5.45;;;0.55;;
61025;SDS011;46911;32.650;-16.902;2023-03-05T04:38:36;5.45;;;0.60;;
61025;SDS011;46911;32.650;-16.902;2023-03-05T04:40:37;0.60;;;0.32;;
61025;SDS011;46911;32.650;-16.902;2023-03-05T04:42:40;1.08;;;0.50;;
61025;SDS011;46911;32.650;-16.902;2023-03-05T04:44:48;4.53;;;0.40;;
61025;SDS011;46911;32.650;-16.902;2023-03-05T04:46:49;8.45;;;0.70;;
61025;SDS011;46911;32.650;-16.902;2023-03-05T04:48:50;6.68;;;0.43;;
61025;SDS011;46911;32.650;-16.902;2023-03-05T04:50:51;3.42;;;0.52;;
61025;SDS011;46911;32.650;-16.902;2023-03-05T04:52:55;0.70;;;0.45;;
61025;SDS011;46911;32.650;-16.902;2023-03-05T04:54:55;4.38;;;0.50;;
61025;SDS011;46911;32.650;-16.902;2023-03-05T04:56:56;2.97;;;0.70;;
61025;SDS011;46911;32.650;-16.902;2023-03-05T04:59:00;4.63;;;0.65;;
61025;SDS011;46911;32.650;-16.902;2023-03-05T05:01:01;1.65;;;0.30;;
61025;SDS011;46911;32.650;-16.902;2023-03-05T05:03:04;2.30;;;0.50;;
61025;SDS011;46911;32.650;-16.902;2023-03-05T05:05:08;2.95;;;0.60;;
61025;SDS011;46911;32.650;-16.902;2023-03-05T05:07:15;9.70;;;0.57;;
61025;SDS011;46911;32.650;-16.902;2023-03-05T05:09:16;1.25;;;0.40;;
61025;SDS011;46911;32.650;-16.902;2023-03-05T05:11:17;6.82;;;0.52;;
61025;SDS011;46911;32.650;-16.902;2023-03-05T05:13:21;2.22;;;0.38;;
61025;SDS011;46911;32.650;-16.902;2023-03-05T05:15:22;3.30;;;0.55;;
61025;SDS011;46911;32.650;-16.902;2023-03-05T05:17:25;1.83;;;0.50;;
61025;SDS011;46911;32.650;-16.902;2023-03-05T05:19:33;4.00;;;0.70;;
61025;SDS011;46911;32.650;-16.902;2023-03-05T05:21:34;5.28;;;0.80;;
61025;SDS011;46911;32.650;-16.902;2023-03-05T05:23:35;2.15;;;0.30;;
61025;SDS011;46911;32.650;-16.902;2023-03-05T05:25:37;3.30;;;0.60;;
61025;SDS011;46911;32.650;-16.902;2023-03-05T05:27:38;4.28;;;0.80;;
61025;SDS011;46911;32.650;-16.902;2023-03-05T05:29:42;6.20;;;0.70;;
61025;SDS011;46911;32.650;-16.902;2023-03-05T05:31:49;3.28;;;0.65;;
61025;SDS011;46911;32.650;-16.902;2023-03-05T05:33:55;4.43;;;0.60;;
61025;SDS011;46911;32.650;-16.902;2023-03-05T05:35:56;0.93;;;0.50;;
61025;SDS011;46911;32.650;-16.902;2023-03-05T05:37:59;2.17;;;0.57;;
61025;SDS011;46911;32.650;-16.902;2023-03-05T05:40:03;3.38;;;0.45;;
61025;SDS011;46911;32.650;-16.902;2023-03-05T05:42:05;4.63;;;0.50;;
61025;SDS011;46911;32.650;-16.902;2023-03-05T05:44:08;4.80;;;0.73;;
61025;SDS011;46911;32.650;-16.902;2023-03-05T05:46:16;2.03;;;0.38;;
61025;SDS011;46911;32.650;-16.902;2023-03-05T05:48:18;1.42;;;0.40;;
61025;SDS011;46911;32.650;-16.902;2023-03-05T05:50:21;2.80;;;0.50;;
61025;SDS011;46911;32.650;-16.902;2023-03-05T05:52:27;3.42;;;0.50;;
61025;SDS011;46911;32.650;-16.902;2023-03-05T05:54:30;1.58;;;0.47;;
61025;SDS011;46911;32.650;-16.902;2023-03-05T05:56:31;1.10;;;0.40;;
61025;SDS011;46911;32.650;-16.902;2023-03-05T05:58:35;1.02;;;0.25;;
61025;SDS011;46911;32.650;-16.902;2023-03-05T06:00:37;7.05;;;0.60;;
61025;SDS011;46911;32.650;-16.902;2023-03-05T06:02:41;1.17;;;0.50;;
61025;SDS011;46911;32.650;-16.902;2023-03-05T06:04:42;7.55;;;0.70;;
61025;SDS011;46911;32.650;-16.902;2023-03-05T06:06:43;2.13;;;0.52;;
61025;SDS011;46911;32.650;-16.902;2023-03-05T06:08:44;11.10;;;0.60;;
61025;SDS011;46911;32.650;-16.902;2023-03-05T06:10:52;5.22;;;0.65;;
61025;SDS011;46911;32.650;-16.902;2023-03-05T06:12:58;7.50;;;0.73;;
61025;SDS011;46911;32.650;-16.902;2023-03-05T06:14:59;3.53;;;0.30;;
61025;SDS011;46911;32.650;-16.902;2023-03-05T06:17:04;0.70;;;0.50;;
61025;SDS011;46911;32.650;-16.902;2023-03-05T06:19:12;2.28;;;0.68;;
61025;SDS011;46911;32.650;-16.902;2023-03-05T06:21:14;1.58;;;0.52;;
61025;SDS011;46911;32.650;-16.902;2023-03-05T06:23:19;1.17;;;0.63;;
61025;SDS011;46911;32.650;-16.902;2023-03-05T06:25:19;2.28;;;0.57;;
61025;SDS011;46911;32.650;-16.902;2023-03-05T06:27:23;8.23;;;0.68;;
61025;SDS011;46911;32.650;-16.902;2023-03-05T06:29:24;3.60;;;0.73;;
61025;SDS011;46911;32.650;-16.902;2023-03-05T06:31:25;4.63;;;0.88;;
61025;SDS011;46911;32.650;-16.902;2023-03-05T06:33:27;4.97;;;0.60;;
61025;SDS011;46911;32.650;-16.902;2023-03-05T06:35:28;2.00;;;0.57;;
61025;SDS011;46911;32.650;-16.902;2023-03-05T06:37:29;0.98;;;0.60;;
61025;SDS011;46911;32.650;-16.902;2023-03-05T06:39:35;3.53;;;0.63;;
61025;SDS011;46911;32.650;-16.902;2023-03-05T06:41:36;3.15;;;0.90;;
61025;SDS011;46911;32.650;-16.902;2023-03-05T06:43:42;4.82;;;1.00;;
61025;SDS011;46911;32.650;-16.902;2023-03-05T06:45:44;3.15;;;0.80;;
61025;SDS011;46911;32.650;-16.902;2023-03-05T06:47:47;6.35;;;0.75;;
61025;SDS011;46911;32.650;-16.902;2023-03-05T06:49:50;6.25;;;0.85;;
61025;SDS011;46911;32.650;-16.902;2023-03-05T06:51:51;4.30;;;0.85;;
61025;SDS011;46911;32.650;-16.902;2023-03-05T06:53:55;2.35;;;0.70;;
61025;SDS011;46911;32.650;-16.902;2023-03-05T06:56:04;4.13;;;0.63;;
61025;SDS011;46911;32.650;-16.902;2023-03-05T06:58:11;4.03;;;0.85;;
61025;SDS011;46911;32.650;-16.902;2023-03-05T07:00:12;7.35;;;1.05;;
61025;SDS011;46911;32.650;-16.902;2023-03-05T07:02:13;2.47;;;0.52;;
61025;SDS011;46911;32.650;-16.902;2023-03-05T07:04:16;4.25;;;0.70;;
61025;SDS011;46911;32.650;-16.902;2023-03-05T07:06:23;6.22;;;0.80;;
61025;SDS011;46911;32.650;-16.902;2023-03-05T07:08:27;5.70;;;0.50;;
61025;SDS011;46911;32.650;-16.902;2023-03-05T07:10:30;4.55;;;0.50;;
61025;SDS011;46911;32.650;-16.902;2023-03-05T07:12:31;2.75;;;0.50;;
61025;SDS011;46911;32.650;-16.902;2023-03-05T07:14:33;3.20;;;0.77;;
61025;SDS011;46911;32.650;-16.902;2023-03-05T07:16:36;7.93;;;0.93;;
61025;SDS011;46911;32.650;-16.902;2023-03-05T07:18:40;2.22;;;0.70;;
61025;SDS011;46911;32.650;-16.902;2023-03-05T07:20:41;4.72;;;0.80;;
61025;SDS011;46911;32.650;-16.902;2023-03-05T07:22:44;5.60;;;0.70;;
61025;SDS011;46911;32.650;-16.902;2023-03-05T07:24:45;4.50;;;0.60;;
61025;SDS011;46911;32.650;-16.902;2023-03-05T07:26:50;2.88;;;0.77;;
61025;SDS011;46911;32.650;-16.902;2023-03-05T07:28:51;9.93;;;1.13;;
61025;SDS011;46911;32.650;-16.902;2023-03-05T07:30:56;6.75;;;1.10;;
61025;SDS011;46911;32.650;-16.902;2023-03-05T07:32:58;3.72;;;1.00;;
61025;SDS011;46911;32.650;-16.902;2023-03-05T07:35:02;11.55;;;1.58;;
61025;SDS011;46911;32.650;-16.902;2023-03-05T07:37:05;4.68;;;1.02;;
61025;SDS011;46911;32.650;-16.902;2023-03-05T07:39:06;4.50;;;0.98;;
61025;SDS011;46911;32.650;-16.902;2023-03-05T07:41:11;8.07;;;1.45;;
61025;SDS011;46911;32.650;-16.902;2023-03-05T07:43:20;3.00;;;0.68;;
61025;SDS011;46911;32.650;-16.902;2023-03-05T07:45:23;3.92;;;0.93;;
61025;SDS011;46911;32.650;-16.902;2023-03-05T07:47:26;3.95;;;0.88;;
61025;SDS011;46911;32.650;-16.902;2023-03-05T07:49:30;2.08;;;0.70;;
61025;SDS011;46911;32.650;-16.902;2023-03-05T07:51:31;3.28;;;0.98;;
61025;SDS011;46911;32.650;-16.902;2023-03-05T07:53:32;5.25;;;0.80;;
61025;SDS011;46911;32.650;-16.902;2023-03-05T07:55:45;8.43;;;1.40;;
61025;SDS011;46911;32.650;-16.902;2023-03-05T07:59:52;3.63;;;1.00;;
61025;SDS011;46911;32.650;-16.902;2023-03-05T08:01:53;3.20;;;1.00;;
61025;SDS011;46911;32.650;-16.902;2023-03-05T08:03:56;3.45;;;0.88;;
61025;SDS011;46911;32.650;-16.902;2023-03-05T08:06:03;4.00;;;1.15;;
61025;SDS011;46911;32.650;-16.902;2023-03-05T08:08:12;2.10;;;0.73;;
61025;SDS011;46911;32.650;-16.902;2023-03-05T08:10:13;4.05;;;0.65;;
61025;SDS011;46911;32.650;-16.902;2023-03-05T08:12:13;2.90;;;0.50;;
61025;SDS011;46911;32.650;-16.902;2023-03-05T08:14:17;4.53;;;0.70;;
61025;SDS011;46911;32.650;-16.902;2023-03-05T08:16:19;5.60;;;0.90;;
61025;SDS011;46911;32.650;-16.902;2023-03-05T08:18:21;2.78;;;0.63;;
61025;SDS011;46911;32.650;-16.902;2023-03-05T08:20:24;2.47;;;0.47;;
61025;SDS011;46911;32.650;-16.902;2023-03-05T08:22:27;5.03;;;0.90;;
61025;SDS011;46911;32.650;-16.902;2023-03-05T08:24:28;1.42;;;0.70;;
61025;SDS011;46911;32.650;-16.902;2023-03-05T08:26:32;5.32;;;0.55;;
61025;SDS011;46911;32.650;-16.902;2023-03-05T08:28:34;13.13;;;1.10;;
61025;SDS011;46911;32.650;-16.902;2023-03-05T08:30:35;5.10;;;0.60;;
61025;SDS011;46911;32.650;-16.902;2023-03-05T08:32:40;1.73;;;0.68;;
61025;SDS011;46911;32.650;-16.902;2023-03-05T08:34:41;3.85;;;1.02;;
61025;SDS011;46911;32.650;-16.902;2023-03-05T08:36:42;4.20;;;0.70;;
61025;SDS011;46911;32.650;-16.902;2023-03-05T08:38:46;10.57;;;1.25;;
61025;SDS011;46911;32.650;-16.902;2023-03-05T08:40:52;9.75;;;1.15;;
61025;SDS011;46911;32.650;-16.902;2023-03-05T08:42:53;7.72;;;1.52;;
61025;SDS011;46911;32.650;-16.902;2023-03-05T08:44:56;5.82;;;1.30;;
61025;SDS011;46911;32.650;-16.902;2023-03-05T08:46:58;10.45;;;1.13;;
61025;SDS011;46911;32.650;-16.902;2023-03-05T08:48:58;5.95;;;1.10;;
61025;SDS011;46911;32.650;-16.902;2023-03-05T08:51:09;10.85;;;1.48;;
61025;SDS011;46911;32.650;-16.902;2023-03-05T08:53:15;5.45;;;1.00;;
61025;SDS011;46911;32.650;-16.902;2023-03-05T08:55:18;10.77;;;2.25;;
61025;SDS011;46911;32.650;-16.902;2023-03-05T08:57:19;15.15;;;1.65;;
61025;SDS011;46911;32.650;-16.902;2023-03-05T08:59:19;11.07;;;1.92;;
61025;SDS011;46911;32.650;-16.902;2023-03-05T09:01:20;7.97;;;2.10;;
61025;SDS011;46911;32.650;-16.902;2023-03-05T09:03:27;14.57;;;2.50;;
61025;SDS011;46911;32.650;-16.902;2023-03-05T09:05:33;6.22;;;1.63;;
61025;SDS011;46911;32.650;-16.902;2023-03-05T09:07:35;9.68;;;1.40;;
61025;SDS011;46911;32.650;-16.902;2023-03-05T09:09:39;15.05;;;3.42;;
61025;SDS011;46911;32.650;-16.902;2023-03-05T09:11:40;16.77;;;3.00;;
61025;SDS011;46911;32.650;-16.902;2023-03-05T09:13:41;19.13;;;2.42;;
61025;SDS011;46911;32.650;-16.902;2023-03-05T09:15:52;8.73;;;1.80;;
61025;SDS011;46911;32.650;-16.902;2023-03-05T09:18:03;6.93;;;1.88;;
61025;SDS011;46911;32.650;-16.902;2023-03-05T09:20:04;14.02;;;1.30;;
61025;SDS011;46911;32.650;-16.902;2023-03-05T09:22:06;9.55;;;1.45;;
61025;SDS011;46911;32.650;-16.902;2023-03-05T09:24:07;13.38;;;1.90;;
61025;SDS011;46911;32.650;-16.902;2023-03-05T09:26:11;10.93;;;1.90;;
61025;SDS011;46911;32.650;-16.902;2023-03-05T09:28:14;10.35;;;1.52;;
61025;SDS011;46911;32.650;-16.902;2023-03-05T09:30:16;10.40;;;1.77;;
61025;SDS011;46911;32.650;-16.902;2023-03-05T09:32:19;14.48;;;1.70;;
61025;SDS011;46911;32.650;-16.902;2023-03-05T09:34:20;11.48;;;1.75;;
61025;SDS011;46911;32.650;-16.902;2023-03-05T09:36:25;7.55;;;1.85;;
61025;SDS011;46911;32.650;-16.902;2023-03-05T09:38:32;9.93;;;1.70;;
61025;SDS011;46911;32.650;-16.902;2023-03-05T09:40:48;8.13;;;1.80;;
61025;SDS011;46911;32.650;-16.902;2023-03-05T09:45:19;14.88;;;2.70;;
61025;SDS011;46911;32.650;-16.902;2023-03-05T09:48:25;9.75;;;1.60;;
61025;SDS011;46911;32.650;-16.902;2023-03-05T09:53:01;8.77;;;1.55;;
61025;SDS011;46911;32.650;-16.902;2023-03-05T09:55:25;5.35;;;1.42;;
61025;SDS011;46911;32.650;-16.902;2023-03-05T09:57:41;8.45;;;1.40;;
61025;SDS011;46911;32.650;-16.902;2023-03-05T10:01:55;9.57;;;1.50;;
61025;SDS011;46911;32.650;-16.902;2023-03-05T10:06:16;10.03;;;1.60;;
61025;SDS011;46911;32.650;-16.902;2023-03-05T10:08:34;10.65;;;1.50;;
61025;SDS011;46911;32.650;-16.902;2023-03-05T10:10:53;10.02;;;1.63;;
61025;SDS011;46911;32.650;-16.902;2023-03-05T10:12:55;15.45;;;1.60;;
61025;SDS011;46911;32.650;-16.902;2023-03-05T10:15:01;10.70;;;1.23;;
61025;SDS011;46911;32.650;-16.902;2023-03-05T10:17:18;11.95;;;1.60;;
61025;SDS011;46911;32.650;-16.902;2023-03-05T10:21:53;9.27;;;1.33;;
61025;SDS011;46911;32.650;-16.902;2023-03-05T10:24:10;9.75;;;1.40;;
61025;SDS011;46911;32.650;-16.902;2023-03-05T10:26:30;6.93;;;1.23;;
61025;SDS011;46911;32.650;-16.902;2023-03-05T10:28:39;3.83;;;1.00;;
61025;SDS011;46911;32.650;-16.902;2023-03-05T10:31:03;6.57;;;1.67;;
61025;SDS011;46911;32.650;-16.902;2023-03-05T10:33:29;6.80;;;1.23;;
61025;SDS011;46911;32.650;-16.902;2023-03-05T10:40:27;8.23;;;1.40;;
61025;SDS011;46911;32.650;-16.902;2023-03-05T10:45:14;7.82;;;1.50;;
61025;SDS011;46911;32.650;-16.902;2023-03-05T10:56:31;8.20;;;1.20;;
61025;SDS011;46911;32.650;-16.902;2023-03-05T10:58:35;10.57;;;1.58;;
61025;SDS011;46911;32.650;-16.902;2023-03-05T11:00:38;8.48;;;1.48;;
61025;SDS011;46911;32.650;-16.902;2023-03-05T11:03:03;9.07;;;1.67;;
61025;SDS011;46911;32.650;-16.902;2023-03-05T11:05:13;5.45;;;1.23;;
61025;SDS011;46911;32.650;-16.902;2023-03-05T11:07:39;4.68;;;1.40;;
61025;SDS011;46911;32.650;-16.902;2023-03-05T11:10:00;5.05;;;1.38;;
61025;SDS011;46911;32.650;-16.902;2023-03-05T11:12:18;5.07;;;1.15;;
61025;SDS011;46911;32.650;-16.902;2023-03-05T11:14:22;6.47;;;1.25;;
61025;SDS011;46911;32.650;-16.902;2023-03-05T11:16:31;9.00;;;1.58;;
61025;SDS011;46911;32.650;-16.902;2023-03-05T11:18:34;4.32;;;0.93;;
61025;SDS011;46911;32.650;-16.902;2023-03-05T11:20:40;12.27;;;1.40;;
61025;SDS011;46911;32.650;-16.902;2023-03-05T11:22:41;7.88;;;1.08;;
61025;SDS011;46911;32.650;-16.902;2023-03-05T11:24:42;5.47;;;1.13;;
61025;SDS011;46911;32.650;-16.902;2023-03-05T11:26:51;7.55;;;0.93;;
61025;SDS011;46911;32.650;-16.902;2023-03-05T11:28:54;12.68;;;1.83;;
61025;SDS011;46911;32.650;-16.902;2023-03-05T11:31:01;2.15;;;0.93;;
61025;SDS011;46911;32.650;-16.902;2023-03-05T11:33:14;5.93;;;1.13;;
61025;SDS011;46911;32.650;-16.902;2023-03-05T11:35:28;6.30;;;1.13;;
61025;SDS011;46911;32.650;-16.902;2023-03-05T11:37:35;8.52;;;1.50;;
61025;SDS011;46911;32.650;-16.902;2023-03-05T11:39:36;6.93;;;1.48;;
61025;SDS011;46911;32.650;-16.902;2023-03-05T11:41:42;9.48;;;1.83;;
61025;SDS011;46911;32.650;-16.902;2023-03-05T11:43:52;5.53;;;0.90;;
61025;SDS011;46911;32.650;-16.902;2023-03-05T11:46:00;12.70;;;1.67;;
61025;SDS011;46911;32.650;-16.902;2023-03-05T11:50:40;8.25;;;1.10;;
61025;SDS011;46911;32.650;-16.902;2023-03-05T11:57:10;6.13;;;1.40;;
61025;SDS011;46911;32.650;-16.902;2023-03-05T11:59:16;8.65;;;1.50;;
61025;SDS011;46911;32.650;-16.902;2023-03-05T12:01:19;6.55;;;1.55;;
61025;SDS011;46911;32.650;-16.902;2023-03-05T12:03:32;7.13;;;1.10;;
61025;SDS011;46911;32.650;-16.902;2023-03-05T12:05:42;8.13;;;1.45;;
61025;SDS011;46911;32.650;-16.902;2023-03-05T12:07:50;13.40;;;1.70;;
61025;SDS011;46911;32.650;-16.902;2023-03-05T12:09:54;9.07;;;1.75;;
61025;SDS011;46911;32.650;-16.902;2023-03-05T12:11:57;5.53;;;1.50;;
61025;SDS011;46911;32.650;-16.902;2023-03-05T12:18:43;13.27;;;1.45;;
61025;SDS011;46911;32.650;-16.902;2023-03-05T12:23:14;6.70;;;1.77;;
61025;SDS011;46911;32.650;-16.902;2023-03-05T12:25:23;9.35;;;2.40;;
61025;SDS011;46911;32.650;-16.902;2023-03-05T12:27:43;7.53;;;1.90;;
61025;SDS011;46911;32.650;-16.902;2023-03-05T12:31:50;8.90;;;1.77;;
61025;SDS011;46911;32.650;-16.902;2023-03-05T12:33:51;10.65;;;1.77;;
61025;SDS011;46911;32.650;-16.902;2023-03-05T12:35:52;11.60;;;2.97;;
61025;SDS011;46911;32.650;-16.902;2023-03-05T12:44:27;5.35;;;1.38;;
61025;SDS011;46911;32.650;-16.902;2023-03-05T12:46:34;5.63;;;1.27;;
61025;SDS011;46911;32.650;-16.902;2023-03-05T12:48:41;7.10;;;1.63;;
61025;SDS011;46911;32.650;-16.902;2023-03-05T12:52:46;4.57;;;1.52;;
61025;SDS011;46911;32.650;-16.902;2023-03-05T12:54:55;9.88;;;1.60;;
61025;SDS011;46911;32.650;-16.902;2023-03-05T12:57:24;7.55;;;1.30;;
61025;SDS011;46911;32.650;-16.902;2023-03-05T12:59:33;10.48;;;2.13;;
61025;SDS011;46911;32.650;-16.902;2023-03-05T13:01:44;8.50;;;1.52;;
61025;SDS011;46911;32.650;-16.902;2023-03-05T13:05:56;8.88;;;1.65;;
61025;SDS011;46911;32.650;-16.902;2023-03-05T13:10:36;12.38;;;2.03;;